createdAt,value
2023-05-19T00:01:19.252Z,100233.61
2023-05-19T00:03:46.906Z,100233.78
2023-05-19T00:06:14.707Z,100233.90
2023-05-19T00:08:42.504Z,100231.65
2023-05-19T00:11:10.149Z,100236.70
2023-05-19T00:13:37.796Z,100231.42
2023-05-19T00:16:06.338Z,100231.56
2023-05-19T00:18:34.814Z,100232.63
2023-05-19T00:21:02.512Z,100229.40
2023-05-19T00:23:30.154Z,100230.25
2023-05-19T00:25:57.835Z,100234.08
2023-05-19T00:28:25.588Z,100232.63
2023-05-19T00:30:53.240Z,100232.60
2023-05-19T00:33:21.020Z,100233.21
2023-05-19T00:35:48.666Z,100234.31
2023-05-19T00:38:16.340Z,100230.81
2023-05-19T00:40:43.996Z,100231.80
2023-05-19T00:43:11.661Z,100230.17
2023-05-19T00:45:39.368Z,100231.33
2023-05-19T00:48:07.091Z,100232.55
2023-05-19T00:50:34.868Z,100233.45
2023-05-19T00:53:02.829Z,100229.39
2023-05-19T00:55:30.613Z,100234.02
2023-05-19T00:57:58.290Z,100232.05
2023-05-19T01:00:25.970Z,100232.56
2023-05-19T01:02:54.554Z,100229.46
2023-05-19T01:05:22.350Z,100229.98
2023-05-19T01:07:53.797Z,100232.58
2023-05-19T01:10:21.448Z,100232.05
2023-05-19T01:12:49.136Z,100231.02
2023-05-19T01:15:16.863Z,100228.12
2023-05-19T01:17:45.121Z,100223.92
2023-05-19T01:20:13.736Z,100217.73
2023-05-19T01:22:43.141Z,100215.55
2023-05-19T01:25:11.116Z,100213.30
2023-05-19T01:27:38.765Z,100218.92
2023-05-19T01:30:07.054Z,100217.43
2023-05-19T01:32:34.744Z,100217.89
2023-05-19T01:35:02.500Z,100222.09
2023-05-19T01:37:30.153Z,100220.02
2023-05-19T01:39:57.812Z,100220.90
2023-05-19T01:42:25.442Z,100218.98
2023-05-19T01:44:53.459Z,100221.30
2023-05-19T01:47:21.124Z,100221.72
2023-05-19T01:49:48.770Z,100220.86
2023-05-19T01:52:16.465Z,100219.15
2023-05-19T01:54:44.145Z,100212.91
2023-05-19T01:57:11.908Z,100208.95
2023-05-19T01:59:39.589Z,100207.95
2023-05-19T02:02:07.234Z,100204.80
2023-05-19T02:04:39.972Z,100208.09
2023-05-19T02:07:07.815Z,100206.36
2023-05-19T02:09:35.702Z,100204.77
2023-05-19T02:12:03.348Z,100202.31
2023-05-19T02:14:31.077Z,100203.00
2023-05-19T02:16:59.504Z,100203.15
2023-05-19T02:19:27.270Z,100202.10
2023-05-19T02:21:55.113Z,100204.55
2023-05-19T02:24:23.165Z,100207.51
2023-05-19T02:26:51.969Z,100206.85
2023-05-19T02:29:19.901Z,100204.30
2023-05-19T02:31:47.702Z,100203.25
2023-05-19T02:34:15.663Z,100198.72
2023-05-19T02:36:43.431Z,100197.64
2023-05-19T02:39:11.396Z,100196.55
2023-05-19T02:41:39.162Z,100193.43
2023-05-19T02:44:07.846Z,100195.73
2023-05-19T02:46:35.626Z,100191.73
2023-05-19T02:49:03.510Z,100196.27
2023-05-19T02:51:31.348Z,100195.38
2023-05-19T02:53:59.211Z,100192.76
2023-05-19T02:56:28.330Z,100195.73
2023-05-19T02:58:56.696Z,100194.55
2023-05-19T03:01:24.465Z,100193.34
2023-05-19T03:03:52.290Z,100189.16
2023-05-19T03:06:20.190Z,100188.80
2023-05-19T03:08:47.947Z,100187.17
2023-05-19T03:11:15.709Z,100191.20
2023-05-19T03:13:43.478Z,100191.58
2023-05-19T03:16:12.229Z,100196.45
2023-05-19T03:18:40.201Z,100198.02
2023-05-19T03:21:08.012Z,100201.52
2023-05-19T03:23:36.070Z,100202.91
2023-05-19T03:26:04.493Z,100198.89
2023-05-19T03:28:32.214Z,100198.72
2023-05-19T03:30:59.982Z,100199.07
2023-05-19T03:33:30.132Z,100195.38
2023-05-19T03:35:57.970Z,100196.91
2023-05-19T03:38:25.834Z,100200.54
2023-05-19T03:40:54.112Z,100201.12
2023-05-19T03:43:21.871Z,100199.94
2023-05-19T03:45:49.657Z,100198.55
2023-05-19T03:48:19.146Z,100198.27
2023-05-19T03:50:49.779Z,100200.90
2023-05-19T03:53:17.538Z,100200.06
2023-05-19T03:55:45.916Z,100198.92
2023-05-19T03:58:14.911Z,100200.14
2023-05-19T04:00:42.875Z,100200.11
2023-05-19T04:03:11.116Z,100203.44
2023-05-19T04:05:39.024Z,100212.34
2023-05-19T04:08:06.784Z,100210.13
2023-05-19T04:10:34.689Z,100211.92
2023-05-19T04:13:02.572Z,100213.86
2023-05-19T04:15:30.430Z,100214.39
2023-05-19T04:17:58.334Z,100217.55
2023-05-19T04:20:26.129Z,100218.23
2023-05-19T04:22:53.790Z,100216.19
2023-05-19T04:25:21.448Z,100213.98
2023-05-19T04:27:49.223Z,100214.67
2023-05-19T04:30:22.561Z,100210.84
2023-05-19T04:32:53.507Z,100213.80
2023-05-19T04:35:21.186Z,100216.57
2023-05-19T04:37:48.847Z,100214.33
2023-05-19T04:40:17.595Z,100218.36
2023-05-19T04:42:46.215Z,100215.77
2023-05-19T04:45:14.333Z,100215.39
2023-05-19T04:47:42.690Z,100216.98
2023-05-19T04:50:11.389Z,100218.39
2023-05-19T04:52:39.100Z,100216.71
2023-05-19T04:55:06.768Z,100216.54
2023-05-19T04:57:34.702Z,100214.29
2023-05-19T05:00:02.409Z,100208.91
2023-05-19T05:02:30.324Z,100211.73
2023-05-19T05:04:58.364Z,100212.82
2023-05-19T05:07:26.128Z,100213.75
2023-05-19T05:09:53.904Z,100215.83
2023-05-19T05:12:21.767Z,100217.94
2023-05-19T05:14:49.528Z,100218.29
2023-05-19T05:17:17.285Z,100220.74
2023-05-19T05:19:45.051Z,100221.84
2023-05-19T05:22:12.824Z,100221.01
2023-05-19T05:24:40.579Z,100218.39
2023-05-19T05:27:10.483Z,100224.51
2023-05-19T05:29:38.369Z,100224.68
2023-05-19T05:32:06.351Z,100222.76
2023-05-19T05:34:34.091Z,100226.46
2023-05-19T05:37:01.758Z,100228.96
2023-05-19T05:39:29.743Z,100226.35
2023-05-19T05:41:57.437Z,100231.76
2023-05-19T05:44:25.069Z,100227.56
2023-05-19T05:46:52.728Z,100225.81
2023-05-19T05:49:20.565Z,100224.42
2023-05-19T05:52:01.499Z,100226.04
2023-05-19T05:54:33.189Z,100226.18
2023-05-19T05:57:00.874Z,100228.60
2023-05-19T05:59:28.525Z,100225.98
2023-05-19T06:01:56.205Z,100225.97
2023-05-19T06:04:23.897Z,100225.11
2023-05-19T06:06:52.877Z,100225.85
2023-05-19T06:09:20.853Z,100227.08
2023-05-19T06:11:48.558Z,100227.78
2023-05-19T06:14:16.448Z,100229.70
2023-05-19T06:16:44.187Z,100226.89
2023-05-19T06:19:12.218Z,100229.98
2023-05-19T06:21:40.047Z,100235.04
2023-05-19T06:24:07.786Z,100237.17
2023-05-19T06:26:35.509Z,100240.83
2023-05-19T06:29:03.276Z,100240.98
2023-05-19T06:31:31.578Z,100242.89
2023-05-19T06:33:59.252Z,100245.34
2023-05-19T06:36:27.052Z,100247.27
2023-05-19T06:38:54.909Z,100249.56
2023-05-19T06:41:22.675Z,100252.89
2023-05-19T06:43:50.540Z,100254.81
2023-05-19T06:46:18.480Z,100254.64
2023-05-19T06:48:46.378Z,100257.27
2023-05-19T06:51:15.688Z,100258.85
2023-05-19T06:53:43.442Z,100256.44
2023-05-19T06:56:11.209Z,100256.25
2023-05-19T06:58:39.787Z,100256.77
2023-05-19T07:01:07.560Z,100254.48
2023-05-19T07:03:35.682Z,100252.92
2023-05-19T07:06:05.055Z,100251.53
2023-05-19T07:08:35.454Z,100250.67
2023-05-19T07:11:03.220Z,100250.65
2023-05-19T07:13:31.288Z,100249.55
2023-05-19T07:15:59.069Z,100250.08
2023-05-19T07:18:27.229Z,100250.80
2023-05-19T07:20:54.997Z,100249.77
2023-05-19T07:23:22.854Z,100251.20
2023-05-19T07:25:50.830Z,100249.23
2023-05-19T07:28:18.590Z,100251.28
2023-05-19T07:30:46.377Z,100249.71
2023-05-19T07:33:14.204Z,100251.26
2023-05-19T07:35:42.098Z,100250.70
2023-05-19T07:38:09.850Z,100251.77
2023-05-19T07:40:37.685Z,100255.41
2023-05-19T07:43:05.984Z,100255.77
2023-05-19T07:45:33.880Z,100261.91
2023-05-19T07:48:01.755Z,100260.51
2023-05-19T07:50:29.633Z,100260.38
2023-05-19T07:52:57.562Z,100262.69
2023-05-19T07:55:25.329Z,100262.38
2023-05-19T07:57:53.088Z,100264.85
2023-05-19T08:00:20.955Z,100265.20
2023-05-19T08:02:48.855Z,100259.29
2023-05-19T08:05:16.692Z,100260.53
2023-05-19T08:07:44.571Z,100260.23
2023-05-19T08:10:12.530Z,100259.05
2023-05-19T08:12:40.305Z,100257.13
2023-05-19T08:15:08.261Z,100257.11
2023-05-19T08:17:36.037Z,100255.36
2023-05-19T08:20:05.360Z,100255.68
2023-05-19T08:22:33.202Z,100255.00
2023-05-19T08:25:01.671Z,100254.86
2023-05-19T08:27:30.258Z,100255.39
2023-05-19T08:29:58.227Z,100256.43
2023-05-19T08:32:26.274Z,100256.28
2023-05-19T08:34:54.269Z,100256.65
2023-05-19T08:37:22.233Z,100258.73
2023-05-19T08:39:50.108Z,100261.89
2023-05-19T08:42:17.868Z,100259.99
2023-05-19T08:44:45.645Z,100258.60
2023-05-19T08:47:14.109Z,100261.40
2023-05-19T08:49:41.876Z,100262.27
2023-05-19T08:52:09.742Z,100265.24
2023-05-19T08:54:37.515Z,100269.60
2023-05-19T08:57:06.202Z,100266.13
2023-05-19T08:59:34.058Z,100267.34
2023-05-19T09:02:01.829Z,100268.55
2023-05-19T09:04:30.327Z,100267.31
2023-05-19T09:06:59.090Z,100269.05
2023-05-19T09:09:26.958Z,100265.56
2023-05-19T09:11:54.722Z,100263.48
2023-05-19T09:14:22.485Z,100265.07
2023-05-19T09:16:53.001Z,100262.98
2023-05-19T09:19:21.555Z,100266.62
2023-05-19T09:21:50.216Z,100264.70
2023-05-19T09:24:17.975Z,100259.96
2023-05-19T09:26:45.820Z,100260.15
2023-05-19T09:29:13.542Z,100259.80
2023-05-19T09:31:41.593Z,100254.25
2023-05-19T09:34:09.387Z,100250.78
2023-05-19T09:36:37.593Z,100246.58
2023-05-19T09:39:05.330Z,100246.41
2023-05-19T09:41:33.152Z,100247.98
2023-05-19T09:44:00.845Z,100247.30
2023-05-19T09:46:28.660Z,100248.05
2023-05-19T09:48:56.836Z,100248.41
2023-05-19T09:51:24.787Z,100251.20
2023-05-19T09:53:52.572Z,100249.64
2023-05-19T09:56:23.915Z,100248.77
2023-05-19T09:58:51.666Z,100250.19
2023-05-19T10:01:19.389Z,100248.09
2023-05-19T10:03:47.620Z,100249.87
2023-05-19T10:06:15.770Z,100246.71
2023-05-19T10:08:43.776Z,100246.73
2023-05-19T10:11:11.524Z,100249.33
2023-05-19T10:13:39.379Z,100247.73
2023-05-19T10:16:07.127Z,100248.25
2023-05-19T10:18:34.845Z,100248.45
2023-05-19T10:21:02.991Z,100250.39
2023-05-19T10:23:30.731Z,100251.77
2023-05-19T10:25:58.504Z,100252.84
2023-05-19T10:28:28.281Z,100250.23
2023-05-19T10:30:56.289Z,100257.93
2023-05-19T10:33:24.090Z,100259.36
2023-05-19T10:35:52.025Z,100256.44
2023-05-19T10:38:19.881Z,100259.40
2023-05-19T10:40:47.645Z,100253.11
2023-05-19T10:43:15.414Z,100252.06
2023-05-19T10:45:43.296Z,100254.50
2023-05-19T10:48:13.510Z,100253.05
2023-05-19T10:50:41.266Z,100256.02
2023-05-19T10:53:09.041Z,100256.08
2023-05-19T10:55:37.419Z,100258.00
2023-05-19T10:58:05.386Z,100252.79
2023-05-19T11:00:33.266Z,100253.48
2023-05-19T11:03:01.034Z,100251.42
2023-05-19T11:05:28.879Z,100251.79
2023-05-19T11:07:56.639Z,100248.48
2023-05-19T11:10:24.410Z,100250.93
2023-05-19T11:12:52.412Z,100251.30
2023-05-19T11:15:20.240Z,100251.45
2023-05-19T11:17:48.802Z,100256.00
2023-05-19T11:20:16.595Z,100248.85
2023-05-19T11:22:44.352Z,100249.05
2023-05-19T11:25:12.129Z,100245.22
2023-05-19T11:27:40.388Z,100246.45
2023-05-19T11:30:09.616Z,100245.23
2023-05-19T11:32:42.414Z,100245.59
2023-05-19T11:35:10.445Z,100252.23
2023-05-19T11:37:38.312Z,100254.35
2023-05-19T11:40:09.292Z,100251.55
2023-05-19T11:42:37.303Z,100257.69
2023-05-19T11:45:05.151Z,100253.48
2023-05-19T11:47:46.473Z,100256.29
2023-05-19T11:50:23.437Z,100255.77
2023-05-19T11:52:51.188Z,100255.23
2023-05-19T11:55:18.855Z,100256.95
2023-05-19T11:57:56.065Z,100258.89
2023-05-19T12:00:31.506Z,100260.11
2023-05-19T12:02:59.486Z,100254.34
2023-05-19T12:05:29.084Z,100258.17
2023-05-19T12:07:56.819Z,100256.08
2023-05-19T12:10:24.565Z,100257.46
2023-05-19T12:12:52.231Z,100256.24
2023-05-19T12:15:21.185Z,100255.38
2023-05-19T12:17:48.879Z,100254.86
2023-05-19T12:20:16.638Z,100253.83
2023-05-19T12:22:44.357Z,100252.41
2023-05-19T12:25:11.996Z,100255.75
2023-05-19T12:27:39.625Z,100255.58
2023-05-19T12:30:07.404Z,100252.42
2023-05-19T12:32:38.043Z,100252.10
2023-05-19T12:35:06.062Z,100250.16
2023-05-19T12:37:35.031Z,100251.20
2023-05-19T12:40:03.843Z,100249.11
2023-05-19T12:42:31.789Z,100249.46
2023-05-19T12:45:00.702Z,100250.34
2023-05-19T12:47:29.610Z,100250.85
2023-05-19T12:49:57.303Z,100248.77
2023-05-19T12:52:25.027Z,100250.51
2023-05-19T12:54:53.249Z,100247.02
2023-05-19T12:57:21.670Z,100244.20
2023-05-19T12:59:49.926Z,100248.23
2023-05-19T13:02:18.388Z,100247.00
2023-05-19T13:04:46.222Z,100245.08
2023-05-19T13:07:13.874Z,100250.87
2023-05-19T13:09:41.582Z,100246.67
2023-05-19T13:12:09.218Z,100244.55
2023-05-19T13:14:37.871Z,100247.54
2023-05-19T13:17:06.293Z,100247.51
2023-05-19T13:19:34.244Z,100243.50
2023-05-19T13:22:02.577Z,100244.02
2023-05-19T13:24:30.845Z,100244.73
2023-05-19T13:26:58.714Z,100243.15
2023-05-19T13:29:28.344Z,100246.12
2023-05-19T13:31:56.214Z,100247.68
2023-05-19T13:34:23.998Z,100246.29
2023-05-19T13:36:51.733Z,100240.52
2023-05-19T13:39:19.411Z,100240.88
2023-05-19T13:41:47.075Z,100243.31
2023-05-19T13:44:14.836Z,100236.85
2023-05-19T13:46:45.577Z,100238.95
2023-05-19T13:49:14.632Z,100235.63
2023-05-19T13:51:42.323Z,100236.69
2023-05-19T13:54:10.270Z,100237.90
2023-05-19T13:56:38.257Z,100236.86
2023-05-19T13:59:05.901Z,100240.89
2023-05-19T14:01:33.782Z,100236.15
2023-05-19T14:04:01.658Z,100238.60
2023-05-19T14:06:29.772Z,100236.33
2023-05-19T14:08:57.473Z,100238.61
2023-05-19T14:11:25.183Z,100239.33
2023-05-19T14:13:53.272Z,100241.06
2023-05-19T14:16:23.148Z,100241.58
2023-05-19T14:18:51.007Z,100241.42
2023-05-19T14:21:18.691Z,100235.66
2023-05-19T14:23:46.533Z,100235.83
2023-05-19T14:26:14.166Z,100232.50
2023-05-19T14:28:41.846Z,100238.45
2023-05-19T14:31:09.538Z,100238.27
2023-05-19T14:33:37.223Z,100240.91
2023-05-19T14:36:05.672Z,100245.27
2023-05-19T14:38:33.365Z,100248.25
2023-05-19T14:41:01.083Z,100248.61
2023-05-19T14:43:28.764Z,100251.42
2023-05-19T14:45:56.496Z,100252.46
2023-05-19T14:48:24.145Z,100250.36
2023-05-19T14:50:52.113Z,100250.18
2023-05-19T14:53:19.797Z,100245.64
2023-05-19T14:55:47.418Z,100246.16
2023-05-19T14:58:27.636Z,100244.58
2023-05-19T15:00:56.438Z,100245.11
2023-05-19T15:03:24.118Z,100246.13
2023-05-19T15:05:51.919Z,100250.51
2023-05-19T15:08:19.589Z,100249.30
2023-05-19T15:10:47.395Z,100249.83
2023-05-19T15:13:15.199Z,100247.55
2023-05-19T15:15:42.973Z,100248.77
2023-05-19T15:18:11.688Z,100249.14
2023-05-19T15:20:39.527Z,100247.39
2023-05-19T15:23:07.282Z,100250.00
2023-05-19T15:25:35.047Z,100252.09
2023-05-19T15:28:02.816Z,100253.50
2023-05-19T15:30:30.678Z,100251.23
2023-05-19T15:32:58.998Z,100245.98
2023-05-19T15:35:26.922Z,100250.87
2023-05-19T15:37:54.693Z,100251.73
2023-05-19T15:40:22.575Z,100255.06
2023-05-19T15:42:50.323Z,100254.20
2023-05-19T15:45:18.136Z,100252.10
2023-05-19T15:47:46.033Z,100252.80
2023-05-19T15:50:14.835Z,100256.98
2023-05-19T15:52:43.376Z,100259.08
2023-05-19T15:55:11.125Z,100257.68
2023-05-19T15:57:38.828Z,100257.67
2023-05-19T16:00:06.509Z,100252.60
2023-05-19T16:02:34.487Z,100252.60
2023-05-19T16:05:02.197Z,100252.61
2023-05-19T16:07:29.874Z,100251.75
2023-05-19T16:09:57.807Z,100247.20
2023-05-19T16:12:27.592Z,100244.56
2023-05-19T16:14:55.586Z,100247.89
2023-05-19T16:17:23.228Z,100251.55
2023-05-19T16:19:50.890Z,100255.42
2023-05-19T16:22:18.673Z,100254.89
2023-05-19T16:24:46.324Z,100254.02
2023-05-19T16:27:14.172Z,100252.79
2023-05-19T16:29:41.940Z,100251.40
2023-05-19T16:32:09.809Z,100249.98
2023-05-19T16:34:37.773Z,100250.88
2023-05-19T16:37:05.540Z,100252.09
2023-05-19T16:39:33.405Z,100249.29
2023-05-19T16:42:01.115Z,100243.52
2023-05-19T16:44:28.932Z,100248.59
2023-05-19T16:46:56.905Z,100245.80
2023-05-19T16:49:24.670Z,100243.69
2023-05-19T16:51:53.301Z,100245.27
2023-05-19T16:54:21.627Z,100245.27
2023-05-19T16:56:49.387Z,100245.45
2023-05-19T16:59:17.669Z,100242.82
2023-05-19T17:01:45.711Z,100240.72
2023-05-19T17:04:13.609Z,100245.44
2023-05-19T17:06:41.377Z,100248.60
2023-05-19T17:09:09.131Z,100251.39
2023-05-19T17:11:36.907Z,100253.31
2023-05-19T17:14:08.042Z,100251.02
2023-05-19T17:16:36.096Z,100253.30
2023-05-19T17:19:04.124Z,100251.55
2023-05-19T17:21:32.151Z,100252.94
2023-05-19T17:23:59.917Z,100249.63
2023-05-19T17:26:27.984Z,100253.64
2023-05-19T17:28:55.852Z,100258.36
2023-05-19T17:31:23.623Z,100259.40
2023-05-19T17:33:51.381Z,100258.54
2023-05-19T17:36:19.148Z,100258.19
2023-05-19T17:38:47.011Z,100259.60
2023-05-19T17:41:14.784Z,100260.84
2023-05-19T17:43:42.641Z,100257.33
2023-05-19T17:46:10.475Z,100257.33
2023-05-19T17:48:38.280Z,100262.40
2023-05-19T17:51:07.833Z,100268.70
2023-05-19T17:53:35.763Z,100275.35
2023-05-19T17:56:03.617Z,100268.00
2023-05-19T17:58:31.598Z,100269.39
2023-05-19T18:00:59.353Z,100267.64
2023-05-19T18:03:27.365Z,100271.67
2023-05-19T18:05:55.387Z,100270.09
2023-05-19T18:08:23.174Z,100272.90
2023-05-19T18:10:52.884Z,100274.48
2023-05-19T18:13:21.648Z,100276.22
2023-05-19T18:15:50.063Z,100274.30
2023-05-19T18:18:17.904Z,100272.55
2023-05-19T18:20:46.069Z,100270.63
2023-05-19T18:23:13.934Z,100276.58
2023-05-19T18:25:41.707Z,100279.55
2023-05-19T18:28:09.430Z,100282.52
2023-05-19T18:30:37.226Z,100284.26
2023-05-19T18:33:06.235Z,100285.83
2023-05-19T18:35:34.096Z,100286.70
2023-05-19T18:38:02.081Z,100291.08
2023-05-19T18:40:29.814Z,100299.13
2023-05-19T18:42:57.479Z,100301.23
2023-05-19T18:45:25.118Z,100304.55
2023-05-19T18:47:53.185Z,100301.05
2023-05-19T18:50:20.905Z,100306.98
2023-05-19T18:52:48.613Z,100315.38
2023-05-19T18:55:16.500Z,100314.34
2023-05-19T18:57:44.152Z,100311.52
2023-05-19T19:00:11.875Z,100312.58
2023-05-19T19:02:39.936Z,100309.25
2023-05-19T19:05:09.717Z,100309.07
2023-05-19T19:07:37.426Z,100309.95
2023-05-19T19:10:05.084Z,100309.95
2023-05-19T19:12:32.759Z,100306.98
2023-05-19T19:15:00.424Z,100305.56
2023-05-19T19:17:28.140Z,100301.02
2023-05-19T19:19:56.154Z,100302.23
2023-05-19T19:22:23.993Z,100299.79
2023-05-19T19:24:51.695Z,100299.29
2023-05-19T19:27:21.059Z,100304.88
2023-05-19T19:29:48.758Z,100305.92
2023-05-19T19:32:16.537Z,100307.31
2023-05-19T19:34:44.188Z,100308.36
2023-05-19T19:37:11.943Z,100310.81
2023-05-19T19:39:39.650Z,100312.91
2023-05-19T19:42:07.306Z,100322.38
2023-05-19T19:44:34.990Z,100323.07
2023-05-19T19:47:06.423Z,100330.04
2023-05-19T19:49:34.180Z,100329.00
2023-05-19T19:52:02.058Z,100328.46
2023-05-19T19:54:29.812Z,100326.02
2023-05-19T19:56:58.802Z,100325.84
2023-05-19T19:59:26.956Z,100328.64
2023-05-19T20:01:55.006Z,100325.31
2023-05-19T20:04:23.128Z,100314.80
2023-05-19T20:06:51.124Z,100309.91
2023-05-19T20:09:18.931Z,100307.11
2023-05-19T20:11:46.722Z,100310.11
2023-05-19T20:14:14.494Z,100314.81
2023-05-19T20:16:42.448Z,100313.75
2023-05-19T20:19:12.071Z,100314.62
2023-05-19T20:21:39.831Z,100312.34
2023-05-19T20:24:07.797Z,100309.89
2023-05-19T20:26:35.560Z,100308.48
2023-05-19T20:29:03.325Z,100306.54
2023-05-19T20:31:31.301Z,100308.27
2023-05-19T20:34:00.151Z,100308.96
2023-05-19T20:36:29.586Z,100303.71
2023-05-19T20:38:57.459Z,100308.60
2023-05-19T20:41:25.216Z,100311.09
2023-05-19T20:43:53.287Z,100313.36
2023-05-19T20:46:21.672Z,100311.27
2023-05-19T20:48:49.536Z,100304.60
2023-05-19T20:51:17.165Z,100307.56
2023-05-19T20:53:44.823Z,100302.13
2023-05-19T20:56:12.530Z,100299.53
2023-05-19T20:58:40.394Z,100305.80
2023-05-19T21:01:08.167Z,100305.59
2023-05-19T21:03:36.224Z,100307.48
2023-05-19T21:06:04.098Z,100307.84
2023-05-19T21:08:31.854Z,100307.16
2023-05-19T21:11:01.074Z,100303.33
2023-05-19T21:13:28.922Z,100301.58
2023-05-19T21:15:56.688Z,100305.58
2023-05-19T21:18:24.556Z,100299.27
2023-05-19T21:20:52.318Z,100305.56
2023-05-19T21:23:20.201Z,100303.33
2023-05-19T21:25:47.946Z,100303.35
2023-05-19T21:28:15.915Z,100300.39
2023-05-19T21:30:44.609Z,100294.95
2023-05-19T21:33:12.518Z,100295.84
2023-05-19T21:35:40.331Z,100297.93
2023-05-19T21:38:22.190Z,100298.67
2023-05-19T21:40:51.012Z,100300.44
2023-05-19T21:43:19.562Z,100304.10
2023-05-19T21:45:47.257Z,100306.02
2023-05-19T21:48:14.985Z,100303.23
2023-05-19T21:50:42.643Z,100299.73
2023-05-19T21:53:10.315Z,100304.98
2023-05-19T21:55:39.393Z,100309.02
2023-05-19T21:58:07.121Z,100308.66
2023-05-19T22:00:36.857Z,100299.39
2023-05-19T22:03:04.936Z,100298.33
2023-05-19T22:05:35.371Z,100289.92
2023-05-19T22:08:03.120Z,100295.36
2023-05-19T22:10:30.826Z,100295.55
2023-05-19T22:12:58.589Z,100299.92
2023-05-19T22:15:26.892Z,100299.91
2023-05-19T22:17:54.628Z,100296.58
2023-05-19T22:20:22.338Z,100296.75
2023-05-19T22:22:50.003Z,100299.90
2023-05-19T22:25:17.647Z,100298.33
2023-05-19T22:27:45.325Z,100295.85
2023-05-19T22:30:13.058Z,100295.16
2023-05-19T22:32:40.721Z,100290.77
2023-05-19T22:35:08.555Z,100288.69
2023-05-19T22:37:36.231Z,100286.77
2023-05-19T22:40:03.910Z,100288.16
2023-05-19T22:42:31.572Z,100284.34
2023-05-19T22:44:59.301Z,100284.33
2023-05-19T22:47:26.964Z,100289.95
2023-05-19T22:49:55.665Z,100283.84
2023-05-19T22:52:24.842Z,100282.44
2023-05-19T22:54:52.492Z,100286.98
2023-05-19T22:57:20.311Z,100286.42
2023-05-19T22:59:47.957Z,100284.52
2023-05-19T23:02:15.933Z,100276.45
2023-05-19T23:04:43.620Z,100277.51
2023-05-19T23:07:11.297Z,100271.92
2023-05-19T23:09:39.325Z,100268.25
2023-05-19T23:12:07.161Z,100269.30
2023-05-19T23:14:34.853Z,100267.02
2023-05-19T23:17:02.620Z,100266.52
2023-05-19T23:19:32.046Z,100263.73
2023-05-19T23:21:59.728Z,100262.52
2023-05-19T23:24:27.442Z,100263.73
2023-05-19T23:26:55.152Z,100260.59
2023-05-19T23:29:22.923Z,100260.42
2023-05-19T23:31:50.639Z,100258.33
2023-05-19T23:34:18.386Z,100256.39
2023-05-19T23:36:46.046Z,100257.77
2023-05-19T23:39:13.740Z,100253.73
2023-05-19T23:41:41.516Z,100255.30
2023-05-19T23:44:09.393Z,100249.19
2023-05-19T23:46:37.093Z,100249.90
2023-05-19T23:49:04.836Z,100246.41
2023-05-19T23:51:32.560Z,100241.16
2023-05-19T23:54:00.269Z,100241.86
2023-05-19T23:56:27.940Z,100241.17
2023-05-19T23:58:55.588Z,100240.66
